Time;durP1;ratioP1;P1;durP2;ratioP2;P2;SDS_P1;SDS_P2;PMS_P1;PMS_P2;Temp;Humidity;BMP_temperature;BMP_pressure;BME280_temperature;BME280_humidity;BME280_pressure;Samples;Min_cycle;Max_cycle;Signal;HPM_P1;HPM_P2
2022/10/17 00:00:53;;;;;;;;;;;12.40;99.90;;;;;;6245964;23;20188;-86
2022/10/17 00:03:20;;;;;;;37.45;19.38;;;12.40;1.00;;;;;;6244531;23;20377;-86
2022/10/17 00:05:48;;;;;;;;;;;12.30;1.00;;;;;;6246519;23;20191;-87
2022/10/17 00:08:18;;;;;;;34.67;18.50;;;12.30;1.00;;;;;;6244461;22;20756;-87
2022/10/17 00:10:45;;;;;;;;;;;12.30;1.00;;;;;;6246273;23;20164;-86
2022/10/17 00:13:12;;;;;;;33.95;18.48;;;12.30;1.00;;;;;;6246289;23;20373;-88
2022/10/17 00:15:43;;;;;;;;;;;12.30;1.00;;;;;;6248977;22;20167;-86
2022/10/17 00:18:10;;;;;;;35.60;18.90;;;12.30;1.00;;;;;;6247048;23;20374;-86
2022/10/17 00:20:37;;;;;;;19.10;17.10;;;12.20;1.00;;;;;;6247386;23;20167;-86
2022/10/17 00:23:04;;;;;;;;;;;12.20;1.00;;;;;;6246392;23;20166;-86
2022/10/17 00:25:32;;;;;;;37.95;19.50;;;12.20;99.90;;;;;;6244153;23;20381;-87
2022/10/17 00:27:59;;;;;;;;;;;12.10;99.90;;;;;;6246103;22;20168;-86
2022/10/17 00:30:26;;;;;;;20.83;14.50;;;12.10;99.90;;;;;;6246972;23;20389;-86
2022/10/17 00:32:53;;;;;;;;;;;12.10;1.00;;;;;;6249395;22;20160;-86
2022/10/17 00:35:20;;;;;;;;;;;12.10;99.90;;;;;;6247669;23;19912;-87
2022/10/17 00:37:47;;;;;;;27.30;16.45;;;12.10;99.90;;;;;;6245800;22;20373;-86
2022/10/17 00:40:14;;;;;;;;;;;12.10;1.00;;;;;;6247582;23;20171;-86
2022/10/17 00:42:42;;;;;;;16.77;13.40;;;12.10;1.00;;;;;;6248911;22;20370;-88
2022/10/17 00:45:24;;;;;;;;;;;12.10;1.00;;;;;;6248181;23;20238;-87
2022/10/17 00:47:54;;;;;;;;;;;12.10;1.00;;;;;;6250510;23;20238;-86
2022/10/17 00:50:21;;;;;;;24.15;15.60;;;12.10;1.00;;;;;;6244540;23;20374;-87
2022/10/17 00:52:48;;;;;;;;;;;12.10;1.00;;;;;;6245997;23;20519;-86
2022/10/17 00:55:18;;;;;;;;;;;12.10;1.00;;;;;;6250939;22;19912;-86
2022/10/17 00:57:46;;;;;;;;;;;12.10;99.90;;;;;;6248767;23;19912;-85
2022/10/17 01:00:15;;;;;;;;;;;12.00;1.00;;;;;;6248189;23;19911;-86
2022/10/17 01:02:42;;;;;;;;;;;12.10;1.00;;;;;;6246344;23;19915;-86
2022/10/17 01:05:09;;;;;;;;;;;12.10;1.00;;;;;;6245577;22;19919;-86
2022/10/17 01:07:36;;;;;;;;;;;12.00;1.00;;;;;;6247771;22;19912;-89
2022/10/17 01:10:04;;;;;;;;;;;12.10;1.00;;;;;;6248812;23;19911;-91
2022/10/17 01:12:35;;;;;;;;;;;12.10;1.00;;;;;;6249379;22;19915;-86
2022/10/17 01:15:07;;;;;;;;;;;12.20;1.00;;;;;;6249754;23;19911;-85
2022/10/17 01:17:39;;;;;;;;;;;12.20;99.90;;;;;;6249760;23;19919;-87
2022/10/17 01:20:27;;;;;;;;;;;12.30;84.40;;;;;;6247220;23;20258;-86
2022/10/17 01:22:59;;;;;;;;;;;12.30;15.20;;;;;;6245694;23;20326;-86
2022/10/17 01:25:29;;;;;;;;;;;12.40;5.20;;;;;;6245576;23;19969;-86
2022/10/17 01:28:12;;;;;;;;;;;12.40;75.10;;;;;;6245732;23;19911;-86
2022/10/17 01:31:03;;;;;;;;;;;12.50;1.00;;;;;;6245643;23;19918;-86
2022/10/17 01:33:38;;;;;;;;;;;12.50;99.90;;;;;;6245538;23;20349;-86
2022/10/17 01:36:08;;;;;;;;;;;12.50;99.90;;;;;;6247155;23;19915;-90
2022/10/17 01:38:38;;;;;;;;;;;12.60;99.90;;;;;;6246253;23;19911;-86
2022/10/17 01:41:09;;;;;;;;;;;12.70;99.90;;;;;;6246749;23;20226;-86
2022/10/17 01:43:39;;;;;;;;;;;12.70;1.00;;;;;;6245767;23;19918;-86
2022/10/17 01:46:10;;;;;;;;;;;12.80;1.00;;;;;;6245359;22;19915;-86
2022/10/17 01:48:37;;;;;;;;;;;12.90;99.90;;;;;;6245071;23;20286;-86
2022/10/17 01:51:08;;;;;;;;;;;12.90;99.90;;;;;;6245169;22;19986;-87
2022/10/17 01:53:37;;;;;;;;;;;13.00;99.90;;;;;;6245609;22;19919;-86
2022/10/17 01:56:05;;;;;;;;;;;13.00;34.40;;;;;;6245268;23;19912;-87
2022/10/17 01:58:33;;;;;;;;;;;13.00;5.90;;;;;;6245715;22;19912;-87
2022/10/17 02:01:02;;;;;;;;;;;13.10;43.80;;;;;;6245724;23;19915;-87
2022/10/17 02:03:31;;;;;;;;;;;13.10;99.90;;;;;;6245258;23;19911;-86
2022/10/17 02:05:58;;;;;;;;;;;13.10;1.00;;;;;;6245968;23;19915;-87
2022/10/17 02:08:25;;;;;;;;;;;13.10;1.00;;;;;;6247799;22;20333;-86
2022/10/17 02:10:54;;;;;;;;;;;13.20;22.20;;;;;;6249277;23;19911;-88
2022/10/17 02:13:27;;;;;;;;;;;13.20;99.90;;;;;;6248746;22;20311;-86
2022/10/17 02:16:03;;;;;;;;;;;13.30;90.90;;;;;;6249178;23;20127;-87
2022/10/17 02:18:41;;;;;;;;;;;13.30;59.40;;;;;;6249484;23;19915;-87
2022/10/17 02:21:12;;;;;;;;;;;13.30;99.90;;;;;;6249662;23;19912;-89
2022/10/17 02:23:46;;;;;;;;;;;13.40;1.00;;;;;;6248925;23;20324;-87
2022/10/17 02:26:17;;;;;;;;;;;13.40;99.90;;;;;;6248510;23;20218;-87
2022/10/17 02:28:52;;;;;;;18.60;14.05;;;13.40;1.00;;;;;;6248177;23;20800;-88
2022/10/17 02:31:22;;;;;;;;;;;13.40;99.90;;;;;;6248443;23;20163;-87
2022/10/17 02:33:53;;;;;;;;;;;13.40;99.90;;;;;;6247697;23;20208;-87
2022/10/17 02:36:23;;;;;;;21.85;15.23;;;13.40;99.90;;;;;;6246856;23;20439;-88
2022/10/17 02:38:51;;;;;;;;;;;13.50;99.90;;;;;;6248725;23;20160;-89
2022/10/17 02:41:20;;;;;;;21.88;15.23;;;13.50;99.90;;;;;;6247127;23;20447;-86
2022/10/17 02:43:47;;;;;;;;;;;13.50;47.00;;;;;;6246805;22;20218;-86
2022/10/17 02:46:19;;;;;;;22.75;15.50;;;13.40;1.00;;;;;;6244985;23;20910;-86
2022/10/17 02:48:48;;;;;;;;;;;13.40;99.90;;;;;;6247318;23;20218;-87
2022/10/17 02:51:20;;;;;;;;;;;13.40;1.00;;;;;;6247070;23;19911;-87
2022/10/17 02:53:53;;;;;;;20.20;14.50;;;13.40;1.00;;;;;;6245854;23;20369;-87
2022/10/17 02:56:21;;;;;;;;;;;13.30;1.00;;;;;;6247020;23;20187;-86
2022/10/17 02:58:53;;;;;;;20.67;14.60;;;13.30;1.00;;;;;;6245501;23;20716;-87
2022/10/17 03:01:20;;;;;;;;;;;13.40;1.00;;;;;;6247143;23;20148;-86
2022/10/17 03:03:47;;;;;;;20.45;14.68;;;13.30;1.00;;;;;;6245615;22;20361;-87
2022/10/17 03:06:14;;;;;;;;;;;13.30;1.00;;;;;;6247061;23;20195;-86
2022/10/17 03:08:42;;;;;;;;;;;13.20;1.00;;;;;;6247083;23;20290;-87
2022/10/17 03:11:09;;;;;;;;;;;13.20;1.00;;;;;;6246947;23;19919;-86
2022/10/17 03:13:36;;;;;;;;;;;13.20;1.00;;;;;;6247060;23;19911;-87
2022/10/17 03:16:02;;;;;;;;;;;13.10;1.00;;;;;;6246839;22;19916;-86
2022/10/17 03:18:29;;;;;;;;;;;13.10;1.00;;;;;;6247150;23;19915;-86
2022/10/17 03:20:56;;;;;;;;;;;13.00;99.90;;;;;;6245628;22;20323;-86
2022/10/17 03:23:23;;;;;;;;;;;12.90;99.90;;;;;;6246090;22;19981;-87
2022/10/17 03:25:51;;;;;;;;;;;12.80;99.90;;;;;;6245718;22;19913;-86
2022/10/17 03:28:18;;;;;;;;;;;12.80;15.30;;;;;;6246222;23;19915;-87
2022/10/17 03:30:45;;;;;;;;;;;12.70;99.90;;;;;;6245657;23;19911;-87
2022/10/17 03:33:11;;;;;;;;;;;12.60;99.90;;;;;;6245545;23;20335;-87
2022/10/17 03:35:38;;;;;;;;;;;12.50;99.90;;;;;;6246632;22;19915;-90
2022/10/17 03:38:05;;;;;;;;;;;12.50;99.90;;;;;;6247262;22;19912;-85
2022/10/17 03:40:32;;;;;;;;;;;12.40;99.90;;;;;;6246794;22;19911;-89
2022/10/17 03:43:01;;;;;;;13.43;12.33;;;12.30;99.90;;;;;;6247219;23;20014;-87
2022/10/17 03:45:27;;;;;;;;;;;12.20;99.90;;;;;;6246209;22;20192;-87
2022/10/17 03:47:54;;;;;;;;;;;12.10;99.90;;;;;;6246741;22;19923;-86
2022/10/17 03:50:21;;;;;;;17.63;13.65;;;12.10;99.90;;;;;;6245212;23;20370;-87
2022/10/17 03:52:48;;;;;;;;;;;12.00;99.90;;;;;;6246717;23;20167;-87
2022/10/17 03:55:15;;;;;;;13.27;11.98;;;11.90;99.90;;;;;;6245544;23;20374;-86
2022/10/17 03:57:42;;;;;;;;;;;11.80;1.00;;;;;;6246390;23;20175;-86
2022/10/17 04:00:11;;;;;;;;;;;11.80;1.00;;;;;;6246012;22;20215;-87
2022/10/17 04:02:38;;;;;;;;;;;11.70;1.00;;;;;;6245895;23;19922;-87
2022/10/17 04:05:06;;;;;;;;;;;11.70;1.00;;;;;;6245426;23;19912;-86
2022/10/17 04:07:32;;;;;;;;;;;11.70;99.90;;;;;;6244250;22;19918;-87
2022/10/17 04:09:59;;;;;;;;;;;11.80;99.90;;;;;;6246607;23;19911;-87
2022/10/17 04:12:26;;;;;;;;;;;11.80;99.90;;;;;;6245934;22;20245;-86
2022/10/17 04:14:53;;;;;;;;;;;11.80;1.00;;;;;;6246372;22;19911;-86
2022/10/17 04:17:21;;;;;;;;;;;11.80;99.90;;;;;;6246352;23;20302;-87
2022/10/17 04:19:49;;;;;;;;;;;11.90;1.00;;;;;;6245964;23;19916;-87
2022/10/17 04:22:16;;;;;;;;;;;11.90;1.00;;;;;;6245879;22;20314;-87
2022/10/17 04:24:43;;;;;;;;;;;11.90;28.40;;;;;;6245990;22;19919;-87
2022/10/17 04:27:10;;;;;;;;;;;12.00;1.00;;;;;;6245881;22;20337;-86
2022/10/17 04:29:37;;;;;;;;;;;12.00;1.00;;;;;;6246065;23;19915;-87
2022/10/17 04:32:04;;;;;;;;;;;12.10;1.00;;;;;;6247044;23;19911;-87
2022/10/17 04:34:32;;;;;;;;;;;12.20;1.00;;;;;;6246108;23;19919;-87
2022/10/17 04:36:59;;;;;;;;;;;12.10;1.00;;;;;;6245829;23;19922;-85
2022/10/17 04:39:25;;;;;;;;;;;12.20;1.00;;;;;;6247242;23;19916;-87
2022/10/17 04:41:52;;;;;;;;;;;12.20;1.00;;;;;;6246589;23;19911;-86
2022/10/17 04:44:20;;;;;;;;;;;12.20;1.00;;;;;;6246578;23;20333;-87
2022/10/17 04:46:47;;;;;;;;;;;12.30;1.00;;;;;;6247443;22;19918;-86
2022/10/17 04:49:14;;;;;;;;;;;12.30;1.00;;;;;;6247163;22;19912;-90
2022/10/17 04:51:42;;;;;;;;;;;12.30;1.00;;;;;;6247064;23;20277;-87
2022/10/17 04:54:09;;;;;;;;;;;12.30;1.00;;;;;;6247879;23;19934;-88
2022/10/17 04:56:36;;;;;;;;;;;12.30;1.00;;;;;;6248310;23;20226;-88
2022/10/17 04:59:03;;;;;;;;;;;12.30;1.00;;;;;;6247374;23;19911;-88
2022/10/17 05:01:30;;;;;;;;;;;12.30;1.00;;;;;;6247911;23;19918;-85
2022/10/17 05:03:57;;;;;;;;;;;12.30;99.90;;;;;;6246849;23;19915;-86
2022/10/17 05:06:26;;;;;;;;;;;12.40;99.90;;;;;;6246328;23;20208;-87
2022/10/17 05:08:56;;;;;;;;;;;12.40;99.90;;;;;;6245743;22;19918;-86
2022/10/17 05:11:24;;;;;;;;;;;12.50;99.90;;;;;;6245425;22;19911;-87
2022/10/17 05:13:51;;;;;;;;;;;12.50;99.90;;;;;;6245444;23;19911;-87
2022/10/17 05:16:18;;;;;;;;;;;12.60;1.00;;;;;;6246044;22;19966;-87
2022/10/17 05:18:47;;;;;;;;;;;12.70;99.90;;;;;;6245626;22;19958;-87
2022/10/17 05:21:14;;;;;;;;;;;12.80;1.00;;;;;;6245429;22;19915;-87
2022/10/17 05:23:41;;;;;;;;;;;12.90;1.00;;;;;;6245761;22;19912;-87
2022/10/17 05:26:09;;;;;;;;;;;13.00;1.00;;;;;;6245772;23;19934;-87
2022/10/17 05:28:36;;;;;;;;;;;13.00;99.90;;;;;;6245178;22;19911;-87
2022/10/17 05:31:03;;;;;;;;;;;13.10;1.00;;;;;;6245882;23;20307;-87
2022/10/17 05:33:30;;;;;;;;;;;13.10;99.90;;;;;;6245552;23;19911;-86
2022/10/17 05:35:56;;;;;;;;;;;13.20;1.00;;;;;;6245832;23;20286;-87
2022/10/17 05:38:23;;;;;;;;;;;13.20;99.90;;;;;;6245608;23;19915;-87
2022/10/17 05:40:50;;;;;;;;;;;13.30;99.90;;;;;;6245521;22;19966;-87
2022/10/17 05:43:18;;;;;;;;;;;13.30;1.00;;;;;;6245144;23;19919;-86
2022/10/17 05:45:52;;;;;;;;;;;13.40;1.00;;;;;;6259883;22;19915;-90
2022/10/17 05:51:29;;;;;;;;;;;13.50;1.00;;;;;;6264134;23;19916;-86
2022/10/17 05:54:03;;;;;;;;;;;13.60;99.90;;;;;;6259510;23;19969;-87
2022/10/17 06:05:38;;;;;;;;;;;13.90;1.00;;;;;;6178766;22;19912;-86
2022/10/17 06:08:05;;;;;;;;;;;14.00;1.00;;;;;;6245766;23;19920;-86
2022/10/17 06:10:32;;;;;;;;;;;14.10;1.00;;;;;;6245776;23;20292;-87
2022/10/17 06:12:58;;;;;;;;;;;14.20;99.90;;;;;;6245296;23;20281;-86
2022/10/17 06:15:34;;;;;;;;;;;14.40;1.00;;;;;;6249037;22;19930;-85
2022/10/17 06:24:47;;;;;;;;;;;14.80;91.50;;;;;;6128775;23;19917;-87
2022/10/17 06:27:15;;;;;;;;;;;15.00;99.90;;;;;;6196172;22;19912;-86
2022/10/17 06:29:42;;;;;;;;;;;15.10;1.00;;;;;;6245395;23;19912;-86
2022/10/17 06:32:09;;;;;;;;;;;15.30;99.90;;;;;;6244958;23;19965;-86
2022/10/17 06:34:36;;;;;;;;;;;15.40;99.90;;;;;;6245084;23;20376;-85
2022/10/17 06:37:02;;;;;;;;;;;15.50;1.00;;;;;;6245288;23;20269;-86
2022/10/17 06:39:32;;;;;;;;;;;15.60;99.90;;;;;;6245269;23;19984;-86
2022/10/17 06:41:59;;;;;;;;;;;15.80;99.90;;;;;;6245213;23;19935;-86
2022/10/17 06:44:30;;;;;;;;;;;15.90;1.00;;;;;;6245375;23;19965;-85
2022/10/17 06:46:57;;;;;;;;;;;16.20;1.00;;;;;;6245051;23;20307;-86
2022/10/17 06:49:24;;;;;;;;;;;16.40;1.00;;;;;;6244887;23;19915;-86
2022/10/17 06:51:51;;;;;;;;;;;16.60;1.00;;;;;;6245258;23;19915;-86
2022/10/17 06:54:21;;;;;;;;;;;16.80;1.00;;;;;;6249292;22;19912;-92
2022/10/17 06:57:13;;;;;;;;;;;;;;;;;;;;;
2022/10/17 07:03:08;;;;;;;;;;;17.70;99.90;;;;;;6166931;23;20377;-92
2022/10/17 07:05:54;;;;;;;;;;;17.90;1.00;;;;;;6181708;23;19913;-90
2022/10/17 07:08:45;;;;;;;;;;;18.10;1.00;;;;;;6181577;23;19901;-91
2022/10/17 07:11:24;;;;;;;;;;;18.20;99.90;;;;;;6178450;23;19916;-88
2022/10/17 07:14:13;;;;;;;;;;;;;;;;;;;;;
2022/10/17 07:17:03;;;;;;;;;;;18.30;1.00;;;;;;6180871;23;19912;-92
2022/10/17 07:19:30;;;;;;;;;;;18.60;1.00;;;;;;6171026;23;19967;-87
2022/10/17 07:21:58;;;;;;;;;;;18.70;1.00;;;;;;6176841;22;19911;-88
2022/10/17 07:24:25;;;;;;;;;;;18.70;99.90;;;;;;6246943;23;19965;-87
2022/10/17 07:26:51;;;;;;;;;;;18.70;99.90;;;;;;6246900;23;19922;-87
2022/10/17 07:29:18;;;;;;;;;;;18.80;99.90;;;;;;6246863;22;19916;-88
2022/10/17 07:31:47;;;;;;;;;;;18.80;97.30;;;;;;6246327;23;19919;-87
2022/10/17 07:34:18;;;;;;;;;;;18.80;1.00;;;;;;6267705;22;19926;-92
2022/10/17 07:37:00;;;;;;;;;;;18.90;29.00;;;;;;6273520;23;19922;-91
2022/10/17 07:39:29;;;;;;;;;;;19.10;1.00;;;;;;6247696;23;19974;-87
2022/10/17 07:41:57;;;;;;;;;;;19.30;61.80;;;;;;6246499;23;20384;-87
2022/10/17 07:44:24;;;;;;;;;;;19.60;1.00;;;;;;6246750;23;19950;-86
2022/10/17 07:46:51;;;;;;;;;;;19.90;1.00;;;;;;6246172;23;19911;-87
2022/10/17 07:49:18;;;;;;;;;;;20.30;63.60;;;;;;6257737;23;19899;-91
2022/10/17 07:51:48;;;;;;;;;;;20.70;1.00;;;;;;6273763;22;19911;-90
2022/10/17 07:54:16;;;;;;;;;;;21.00;99.90;;;;;;6272758;22;19915;-92
2022/10/17 07:56:49;;;;;;;;;;;21.10;99.90;;;;;;6273665;22;19912;-92
2022/10/17 07:59:16;;;;;;;;;;;21.00;99.90;;;;;;6248707;23;19974;-88
2022/10/17 08:01:43;;;;;;;;;;;20.90;99.90;;;;;;6246380;23;19969;-88
2022/10/17 08:04:17;;;;;;;;;;;20.90;99.90;;;;;;6268059;23;19934;-90
2022/10/17 08:06:44;;;;;;;;;;;20.80;99.90;;;;;;6273305;23;19922;-89
2022/10/17 08:09:11;;;;;;;;;;;20.70;99.90;;;;;;6250696;22;19982;-87
2022/10/17 08:11:38;;;;;;;;;;;20.60;99.90;;;;;;6246527;22;19965;-86
2022/10/17 08:14:06;;;;;;;;;;;20.50;99.90;;;;;;6246779;22;19916;-86
2022/10/17 08:16:33;;;;;;;;;;;20.40;99.90;;;;;;6246104;23;19999;-86
2022/10/17 08:19:03;;;;;;;;;;;20.30;99.90;;;;;;6252491;23;19981;-91
2022/10/17 08:21:31;;;;;;;;;;;20.40;99.90;;;;;;6273035;22;19907;-90
2022/10/17 08:23:58;;;;;;;;;;;20.40;99.90;;;;;;6268279;22;19923;-87
2022/10/17 08:26:24;;;;;;;;;;;20.30;99.90;;;;;;6245994;22;20305;-87
2022/10/17 08:28:51;;;;;;;;;;;20.40;99.90;;;;;;6246232;23;19916;-87
2022/10/17 08:31:20;;;;;;;;;;;20.50;99.90;;;;;;6246474;22;19962;-87
2022/10/17 08:33:47;;;;;;;;;;;20.70;47.50;;;;;;6245953;23;20314;-86
2022/10/17 08:36:15;;;;;;;;;;;21.10;99.90;;;;;;6245789;22;19911;-87
2022/10/17 08:38:45;;;;;;;;;;;21.50;81.90;;;;;;6273329;22;19919;-93
2022/10/17 08:41:14;;;;;;;;;;;21.80;15.90;;;;;;6263513;23;19915;-86
2022/10/17 08:43:46;;;;;;;;;;;22.10;14.00;;;;;;6246406;23;19911;-86
2022/10/17 08:46:13;;;;;;;71.10;66.90;;;22.30;1.00;;;;;;6245740;23;20158;-86
2022/10/17 08:48:43;;;;;;;;;;;22.40;1.00;;;;;;6245649;23;20196;-86
2022/10/17 08:51:13;;;;;;;;;;;22.50;1.00;;;;;;6246403;22;20284;-87
2022/10/17 08:53:42;;;;;;;;;;;22.80;1.00;;;;;;6245613;22;19916;-86
2022/10/17 08:56:17;;;;;;;;;;;23.20;1.00;;;;;;6246256;23;19923;-87
2022/10/17 08:59:02;;;;;;;76.73;72.30;;;23.50;1.00;;;;;;6251933;23;20425;-92
2022/10/17 09:04:38;;;;;;;76.50;72.20;;;23.60;1.00;;;;;;6245226;23;20160;-89
2022/10/17 09:07:07;;;;;;;;;;;23.70;1.00;;;;;;6245716;23;19949;-88
2022/10/17 09:09:36;;;;;;;;;;;23.90;1.00;;;;;;6248563;23;19966;-88
2022/10/17 09:12:08;;;;;;;;;;;23.90;1.00;;;;;;6245363;23;20243;-87
2022/10/17 09:14:48;;;;;;;;;;;23.70;1.00;;;;;;6259534;23;19915;-86
2022/10/17 09:17:18;;;;;;;;;;;23.50;1.00;;;;;;6245712;23;20270;-86
2022/10/17 09:19:51;;;;;;;;;;;23.30;1.00;;;;;;6244981;23;19951;-86
2022/10/17 09:22:19;;;;;;;;;;;23.20;1.00;;;;;;6245805;23;19961;-86
2022/10/17 09:24:48;;;;;;;;;;;23.20;1.00;;;;;;6245882;23;19922;-87
2022/10/17 09:27:25;;;;;;;;;;;23.40;1.00;;;;;;6260107;23;19916;-89
2022/10/17 09:29:55;;;;;;;;;;;23.30;1.00;;;;;;6245781;23;19922;-88
2022/10/17 09:32:23;;;;;;;;;;;23.40;1.00;;;;;;6254729;22;19916;-86
2022/10/17 09:34:53;;;;;;;;;;;23.50;1.00;;;;;;6245486;23;20294;-88
2022/10/17 09:37:22;;;;;;;;;;;23.70;1.00;;;;;;6245819;23;19923;-88
2022/10/17 09:39:50;;;;;;;;;;;23.60;1.00;;;;;;6266834;22;19916;-93
2022/10/17 09:42:20;;;;;;;;;;;23.60;1.00;;;;;;6247856;22;19915;-89
2022/10/17 09:44:49;;;;;;;;;;;23.50;1.00;;;;;;6248214;23;20232;-87
2022/10/17 09:47:21;;;;;;;;;;;23.50;1.00;;;;;;6249845;22;19962;-86
2022/10/17 09:49:48;;;;;;;;;;;23.30;1.00;;;;;;6245375;23;19916;-88
2022/10/17 09:52:17;;;;;;;;;;;23.10;1.00;;;;;;6245588;23;19919;-89
2022/10/17 09:54:45;;;;;;;;;;;23.00;1.00;;;;;;6245408;22;20285;-88
2022/10/17 09:57:13;;;;;;;;;;;22.90;1.00;;;;;;6245635;22;19922;-88
2022/10/17 09:59:41;;;;;;;;;;;22.90;1.00;;;;;;6245491;23;19922;-88
2022/10/17 10:02:09;;;;;;;;;;;22.90;1.00;;;;;;6245504;23;19919;-88
2022/10/17 10:04:36;;;;;;;;;;;22.80;1.00;;;;;;6245078;23;20331;-89
2022/10/17 10:07:04;;;;;;;;;;;22.70;1.00;;;;;;6245354;22;19923;-88
2022/10/17 10:09:33;;;;;;;;;;;22.70;1.00;;;;;;6245065;23;20269;-89
2022/10/17 10:12:03;;;;;;;;;;;22.80;1.00;;;;;;6250297;22;19903;-88
2022/10/17 10:14:32;;;;;;;;;;;22.70;1.00;;;;;;6270274;23;19915;-89
2022/10/17 10:16:59;;;;;;;;;;;22.70;1.00;;;;;;6245479;22;19950;-86
2022/10/17 10:19:28;;;;;;;;;;;22.80;1.00;;;;;;6245557;22;19920;-87
2022/10/17 10:21:56;;;;;;;;;;;22.70;1.00;;;;;;6244941;23;19962;-86
2022/10/17 10:24:24;;;;;;;;;;;22.70;1.00;;;;;;6245512;22;19987;-86
2022/10/17 10:26:53;;;;;;;;;;;22.80;1.00;;;;;;6245539;23;19986;-86
2022/10/17 10:29:22;;;;;;;;;;;22.80;1.00;;;;;;6245283;23;19916;-87
2022/10/17 10:31:49;;;;;;;;;;;22.80;1.00;;;;;;6247112;22;19922;-87
2022/10/17 10:34:19;;;;;;;;;;;22.80;1.00;;;;;;6246907;23;20299;-86
2022/10/17 10:36:48;;;;;;;;;;;22.80;1.00;;;;;;6247403;22;19988;-87
2022/10/17 10:39:24;;;;;;;;;;;22.80;1.00;;;;;;6247587;22;19920;-87
2022/10/17 10:41:52;;;;;;;;;;;22.80;1.00;;;;;;6247407;23;19916;-87
2022/10/17 10:44:21;;;;;;;;;;;22.80;1.00;;;;;;6247383;22;19930;-87
2022/10/17 10:46:48;;;;;;;;;;;22.90;1.00;;;;;;6246893;23;19969;-87
2022/10/17 10:49:28;;;;;;;;;;;22.90;1.00;;;;;;6247080;23;19974;-87
2022/10/17 10:51:58;;;;;;;;;;;22.90;1.00;;;;;;6246794;23;20369;-87
2022/10/17 10:54:26;;;;;;;;;;;22.90;1.00;;;;;;6246772;22;19916;-87
2022/10/17 10:56:56;;;;;;;;;;;22.90;1.00;;;;;;6247011;23;20282;-87
2022/10/17 10:59:33;;;;;;;;;;;22.90;1.00;;;;;;6250478;23;19916;-91
2022/10/17 11:02:01;;;;;;;;;;;22.80;1.00;;;;;;6267382;23;19916;-87
2022/10/17 11:04:30;;;;;;;;;;;22.80;1.00;;;;;;6247212;22;19915;-89
2022/10/17 11:07:00;;;;;;;;;;;22.90;1.00;;;;;;6246982;23;19916;-87
2022/10/17 11:09:32;;;;;;;;;;;22.90;1.00;;;;;;6246960;23;19915;-86
2022/10/17 11:12:02;;;;;;;;;;;22.90;1.00;;;;;;6246580;23;20385;-86
2022/10/17 11:14:34;;;;;;;;;;;22.90;1.00;;;;;;6247428;23;19919;-86
2022/10/17 11:17:05;;;;;;;;;;;22.90;1.00;;;;;;6247060;23;19946;-87
2022/10/17 11:19:35;;;;;;;;;;;22.90;1.00;;;;;;6247022;23;19915;-86
2022/10/17 11:22:07;;;;;;;;;;;22.90;1.00;;;;;;6246542;22;19916;-86
2022/10/17 11:24:37;;;;;;;;;;;22.90;1.00;;;;;;6246637;23;20400;-87
2022/10/17 11:27:05;;;;;;;;;;;22.90;1.00;;;;;;6246954;22;20101;-87
2022/10/17 11:29:33;;;;;;;;;;;23.00;1.00;;;;;;6246833;23;20298;-86
2022/10/17 11:32:09;;;;;;;;;;;23.00;1.00;;;;;;6260556;23;19938;-93
2022/10/17 11:34:39;;;;;;;;;;;23.00;1.00;;;;;;6264442;23;19916;-88
2022/10/17 11:37:09;;;;;;;;;;;23.00;1.00;;;;;;6247050;23;19919;-86
2022/10/17 11:39:41;;;;;;;;;;;23.10;1.00;;;;;;6246500;23;20273;-86
2022/10/17 11:42:11;;;;;;;;;;;23.10;1.00;;;;;;6246247;23;19916;-87
2022/10/17 11:44:39;;;;;;;;;;;23.10;1.00;;;;;;6246985;23;19927;-86
2022/10/17 11:47:07;;;;;;;;;;;23.10;1.00;;;;;;6246884;22;19916;-86
2022/10/17 11:49:35;;;;;;;;;;;23.10;1.00;;;;;;6246546;23;19919;-85
2022/10/17 11:52:08;;;;;;;;;;;23.10;1.00;;;;;;6246864;23;19919;-86
2022/10/17 11:54:38;;;;;;;;;;;23.20;1.00;;;;;;6258260;23;19929;-92
2022/10/17 11:57:16;;;;;;;;;;;23.20;1.00;;;;;;6246296;22;19981;-88
2022/10/17 11:59:48;;;;;;;;;;;23.20;1.00;;;;;;6246410;23;19915;-86
2022/10/17 12:02:18;;;;;;;;;;;23.10;1.00;;;;;;6246923;23;19915;-87
2022/10/17 12:04:51;;;;;;;;;;;23.20;1.00;;;;;;6246776;23;19919;-86
2022/10/17 12:07:22;;;;;;;;;;;23.30;1.00;;;;;;6246466;22;19923;-86
2022/10/17 12:09:52;;;;;;;;;;;23.40;1.00;;;;;;6246480;23;19916;-87
2022/10/17 12:12:27;;;;;;;;;;;23.40;1.00;;;;;;6246583;23;19915;-86
2022/10/17 12:14:54;;;;;;;;;;;23.50;1.00;;;;;;6246263;23;20393;-86
2022/10/17 12:17:31;;;;;;;;;;;23.50;1.00;;;;;;6246414;22;19915;-86
2022/10/17 12:20:29;;;;;;;;;;;23.50;1.00;;;;;;6246286;23;19970;-86
2022/10/17 12:22:57;;;;;;;;;;;23.50;1.00;;;;;;6123864;23;19917;-86
2022/10/17 12:25:28;;;;;;;;;;;23.50;1.00;;;;;;6218862;23;19915;-86
2022/10/17 12:28:13;;;;;;;;;;;23.60;1.00;;;;;;6246301;23;19916;-86
2022/10/17 12:30:54;;;;;;;;;;;23.60;1.00;;;;;;6246757;23;19919;-86
2022/10/17 12:33:22;;;;;;;;;;;23.60;1.00;;;;;;6245892;23;19994;-86
2022/10/17 12:35:50;;;;;;;;;;;23.60;1.00;;;;;;6246532;23;19916;-86
2022/10/17 12:38:27;;;;;;;;;;;23.60;1.00;;;;;;6246588;23;19943;-86
2022/10/17 12:40:58;;;;;;;;;;;23.70;1.00;;;;;;6245758;23;20297;-86
2022/10/17 12:43:37;;;;;;;;;;;23.70;1.00;;;;;;6246222;22;19923;-86
2022/10/17 12:46:04;;;;;;;;;;;23.70;1.00;;;;;;6246230;23;20093;-86
2022/10/17 12:49:04;;;;;;;;;;;23.80;1.00;;;;;;6246159;23;19970;-86
2022/10/17 12:51:51;;;;;;;;;;;23.80;1.00;;;;;;6153110;23;19975;-87
2022/10/17 12:54:17;;;;;;;;;;;23.90;1.00;;;;;;6153440;23;20291;-86
2022/10/17 12:56:45;;;;;;;;;;;23.90;1.00;;;;;;6206446;23;19923;-86
2022/10/17 12:59:15;;;;;;;;;;;23.80;1.00;;;;;;6245449;22;20224;-86
2022/10/17 13:01:45;;;;;;;;;;;23.80;1.00;;;;;;6245572;23;19920;-86
2022/10/17 13:04:12;;;;;;;;;;;23.80;1.00;;;;;;6246138;23;19927;-87
2022/10/17 13:06:43;;;;;;;;;;;23.80;1.00;;;;;;6245706;22;20285;-85
2022/10/17 13:09:22;;;;;;;;;;;23.80;1.00;;;;;;6258781;23;19962;-91
2022/10/17 13:11:54;;;;;;;;;;;23.80;1.00;;;;;;6272703;23;19956;-93
2022/10/17 13:14:23;;;;;;;;;;;23.80;1.00;;;;;;6250935;23;19916;-87
2022/10/17 13:16:51;;;;;;;;;;;23.80;1.00;;;;;;6246110;23;19986;-86
2022/10/17 13:19:19;;;;;;;;;;;23.80;1.00;;;;;;6245678;23;20199;-86
2022/10/17 13:21:50;;;;;;;;;;;23.80;1.00;;;;;;6245527;23;20215;-86
2022/10/17 13:24:21;;;;;;;;;;;23.80;1.00;;;;;;6245073;23;19923;-85
2022/10/17 13:26:48;;;;;;;;;;;23.80;1.00;;;;;;6245402;23;19962;-86
2022/10/17 13:29:15;;;;;;;;;;;23.70;1.00;;;;;;6245491;23;19919;-86
2022/10/17 13:31:44;;;;;;;;;;;23.70;1.00;;;;;;6245242;23;20282;-85
2022/10/17 13:34:15;;;;;;;;;;;23.60;1.00;;;;;;6245505;22;19970;-86
2022/10/17 13:36:43;;;;;;;;;;;23.60;1.00;;;;;;6245203;23;19920;-85
2022/10/17 13:39:13;;;;;;;;;;;23.60;1.00;;;;;;6245143;23;20278;-86
2022/10/17 13:41:40;;;;;;;;;;;23.50;1.00;;;;;;6245226;23;20277;-86
2022/10/17 13:44:10;;;;;;;;;;;23.50;1.00;;;;;;6244936;23;19916;-86
2022/10/17 13:46:39;;;;;;;;;;;23.40;1.00;;;;;;6245203;23;19985;-86
2022/10/17 13:49:12;;;;;;;;;;;23.40;1.00;;;;;;6245120;23;19926;-85
2022/10/17 13:51:42;;;;;;;;;;;23.40;1.00;;;;;;6245130;23;19962;-86
2022/10/17 13:54:17;;;;;;;;;;;23.40;1.00;;;;;;6245210;23;20266;-85
2022/10/17 13:56:43;;;;;;;;;;;23.50;1.00;;;;;;6245083;23;20293;-85
2022/10/17 13:59:19;;;;;;;;;;;23.50;1.00;;;;;;6245297;23;19919;-85
2022/10/17 14:01:48;;;;;;;;;;;23.50;1.00;;;;;;6245487;23;19920;-86
2022/10/17 14:04:16;;;;;;;;;;;23.60;1.00;;;;;;6245014;22;19920;-85
2022/10/17 14:06:43;;;;;;;;;;;23.60;1.00;;;;;;6245236;23;19919;-85
2022/10/17 14:09:17;;;;;;;;;;;23.50;1.00;;;;;;6245384;23;19915;-86
2022/10/17 14:11:45;;;;;;;;;;;23.50;1.00;;;;;;6244848;23;19926;-85
2022/10/17 14:14:18;;;;;;;;;;;23.50;1.00;;;;;;6244997;23;19962;-85
2022/10/17 14:16:44;;;;;;;;;;;23.40;1.00;;;;;;6245169;23;20392;-86
2022/10/17 14:19:20;;;;;;;;;;;23.40;1.00;;;;;;6245294;22;19970;-86
2022/10/17 14:21:52;;;;;;;39.70;12.35;;;23.30;1.00;;;;;;6244643;23;20002;-85
2022/10/17 14:24:38;;;;;;;38.60;11.18;;;23.20;1.00;;;;;;6245138;23;20159;-85
2022/10/17 14:27:27;;;;;;;45.22;13.55;;;23.10;1.00;;;;;;6244577;23;20184;-86
2022/10/17 14:29:59;;;;;;;45.80;13.15;;;23.00;1.00;;;;;;6245011;23;20149;-86
2022/10/17 14:32:28;;;;;;;49.17;13.85;;;22.90;1.00;;;;;;6244909;23;20156;-86
2022/10/17 14:34:58;;;;;;;49.20;14.32;;;22.80;1.00;;;;;;6244616;23;20254;-86
2022/10/17 14:37:50;;;;;;;;;;;;;;;;;;;;;
2022/10/17 14:40:31;;;;;;;45.63;14.02;;;22.70;1.00;;;;;;6271026;23;20218;-91
2022/10/17 14:43:04;;;;;;;45.13;13.25;;;22.60;1.00;;;;;;6270242;23;20149;-87
2022/10/17 14:45:34;;;;;;;45.10;13.32;;;22.50;1.00;;;;;;6244548;23;20149;-86
2022/10/17 14:48:03;;;;;;;47.65;13.45;;;22.50;1.00;;;;;;6241868;22;20164;-87
2022/10/17 14:50:32;;;;;;;50.78;14.75;;;22.40;1.00;;;;;;6241860;22;20186;-87
2022/10/17 14:53:03;;;;;;;63.35;16.70;;;22.40;1.00;;;;;;6243840;22;20160;-86
2022/10/17 14:55:33;;;;;;;51.95;14.48;;;22.40;1.00;;;;;;6243914;23;20190;-87
2022/10/17 14:58:00;;;;;;;55.83;16.00;;;22.40;1.00;;;;;;6243622;23;20238;-87